Palo, Iowa
Current Conditions -  °F | °C
As of 7:52 PM on Friday 28 Nov 2014 (Local Time) from KCID Reporting Station
Haze Haze  
Wind Chill: 20°   Ceiling: Unl
Heat Index: 28°   Visibility: 5mi
Dew Point: 26°   Wind: 8mph
Humidity: 92%   Direction: 100°E
Pressure: 29.8"   Gusts: NA
Location:  42.07°N, 91.8°W
Report Text: KCID 290152Z 10007KT 5SM BR CLR M02/M03 A2980 RMK AO2 SLP103 T10221033
Loading
Personal Weather Stations






























Interactive Weather Map New forecast layout! Learn more

10-Day Weather Forecast

Advertisements
Track Severe Weather on mobile